createdAt,value
2023-02-27T00:00:40.949Z,8.10
2023-02-27T00:03:25.731Z,8.60
2023-02-27T00:05:54.028Z,10.00
2023-02-27T00:08:22.778Z,5.20
2023-02-27T00:10:50.679Z,6.50
2023-02-27T00:13:19.228Z,4.80
2023-02-27T00:15:48.242Z,5.00
2023-02-27T00:18:16.656Z,5.10
2023-02-27T00:20:44.578Z,7.80
2023-02-27T00:23:12.402Z,5.70
2023-02-27T00:25:40.430Z,4.60
2023-02-27T00:28:08.448Z,6.80
2023-02-27T00:30:36.270Z,16.80
2023-02-27T00:33:04.518Z,6.00
2023-02-27T00:35:32.414Z,6.60
2023-02-27T00:38:00.363Z,8.60
2023-02-27T00:40:28.466Z,11.30
2023-02-27T00:42:56.366Z,5.80
2023-02-27T00:45:24.294Z,10.90
2023-02-27T00:47:52.550Z,6.60
2023-02-27T00:50:20.540Z,21.70
2023-02-27T00:52:48.432Z,12.50
2023-02-27T00:55:16.311Z,16.80
2023-02-27T00:57:44.427Z,27.50
2023-02-27T01:00:12.769Z,35.50
2023-02-27T01:02:40.792Z,19.30
2023-02-27T01:05:10.201Z,8.30
2023-02-27T01:07:38.463Z,21.10
2023-02-27T01:10:07.580Z,22.00
2023-02-27T01:12:36.072Z,13.80
2023-02-27T01:15:06.088Z,6.50
2023-02-27T01:17:34.150Z,5.40
2023-02-27T01:20:02.241Z,5.50
2023-02-27T01:22:30.171Z,4.10
2023-02-27T01:24:58.234Z,4.40
2023-02-27T01:27:26.358Z,4.50
2023-02-27T01:29:54.312Z,4.80
2023-02-27T01:32:22.375Z,4.90
2023-02-27T01:34:50.352Z,4.70
2023-02-27T01:37:18.250Z,4.70
2023-02-27T01:39:46.158Z,4.70
2023-02-27T01:42:23.986Z,4.50
2023-02-27T01:45:12.931Z,6.70
2023-02-27T01:47:48.399Z,6.90
2023-02-27T01:50:18.507Z,6.10
2023-02-27T01:52:51.971Z,6.00
2023-02-27T01:55:21.372Z,6.50
2023-02-27T01:57:50.713Z,6.30
2023-02-27T02:00:19.460Z,6.70
2023-02-27T02:03:00.494Z,6.90
2023-02-27T02:05:30.450Z,7.10
2023-02-27T02:07:58.856Z,6.30
2023-02-27T02:10:28.193Z,6.60
2023-02-27T02:12:56.649Z,6.40
2023-02-27T02:15:32.076Z,6.60
2023-02-27T02:18:24.771Z,7.80
2023-02-27T02:21:23.594Z,7.50
2023-02-27T02:24:16.674Z,7.60
2023-02-27T02:26:59.531Z,9.50
2023-02-27T02:29:39.490Z,6.30
2023-02-27T02:32:32.373Z,7.10
2023-02-27T02:35:32.181Z,7.00
2023-02-27T02:38:05.882Z,4.50
2023-02-27T02:40:45.440Z,5.00
2023-02-27T02:43:38.354Z,5.00
2023-02-27T02:46:32.338Z,5.80
2023-02-27T02:49:22.268Z,5.20
2023-02-27T02:52:07.146Z,5.80
2023-02-27T02:54:49.462Z,6.00
2023-02-27T02:57:28.293Z,4.70
2023-02-27T03:00:06.160Z,4.30
2023-02-27T03:02:43.791Z,10.80
2023-02-27T03:05:34.092Z,5.30
2023-02-27T03:08:20.343Z,5.00
2023-02-27T03:10:58.070Z,4.60
2023-02-27T03:13:40.401Z,4.30
2023-02-27T03:16:18.638Z,4.20
2023-02-27T03:18:52.545Z,4.40
2023-02-27T03:23:56.295Z,4.10
2023-02-27T03:26:33.651Z,4.00
2023-02-27T03:29:06.504Z,3.80
2023-02-27T03:31:45.175Z,3.80
2023-02-27T03:34:24.306Z,3.80
2023-02-27T03:36:55.232Z,3.40
2023-02-27T03:39:29.389Z,3.70
2023-02-27T03:42:19.430Z,3.40
2023-02-27T03:45:16.496Z,4.10
2023-02-27T03:47:45.098Z,3.40
2023-02-27T03:50:13.810Z,3.10
2023-02-27T03:52:41.959Z,4.00
2023-02-27T03:55:19.343Z,3.90
2023-02-27T03:57:49.183Z,3.20
2023-02-27T04:00:22.755Z,2.40
2023-02-27T04:02:52.625Z,2.60
2023-02-27T04:05:21.990Z,3.60
2023-02-27T04:08:08.503Z,4.20
2023-02-27T04:10:55.207Z,3.70
2023-02-27T04:13:38.783Z,3.50
2023-02-27T04:16:29.329Z,3.20
2023-02-27T04:19:41.591Z,2.80
2023-02-27T04:22:37.325Z,2.50
2023-02-27T04:25:47.487Z,2.90
2023-02-27T04:28:44.985Z,3.70
2023-02-27T04:31:19.336Z,3.30
2023-02-27T04:33:59.066Z,3.70
2023-02-27T04:36:47.048Z,3.70
2023-02-27T04:39:26.625Z,3.40
2023-02-27T04:41:59.870Z,3.50
2023-02-27T04:44:30.227Z,3.60
2023-02-27T04:46:59.831Z,3.40
2023-02-27T04:49:53.944Z,3.00
2023-02-27T04:52:29.953Z,3.00
2023-02-27T04:55:05.983Z,2.80
2023-02-27T04:57:49.361Z,3.70
2023-02-27T05:00:21.353Z,3.20
2023-02-27T05:02:58.336Z,2.80
2023-02-27T05:05:30.433Z,2.50
2023-02-27T05:08:05.139Z,2.70
2023-02-27T05:10:59.608Z,2.70
2023-02-27T05:16:23.301Z,2.80
2023-02-27T05:18:51.369Z,2.80
2023-02-27T05:21:53.660Z,2.80
2023-02-27T05:24:42.041Z,2.80
2023-02-27T05:27:17.870Z,2.80
2023-02-27T05:29:54.325Z,3.10
2023-02-27T05:32:42.152Z,3.70
2023-02-27T05:35:31.943Z,2.90
2023-02-27T05:38:12.056Z,2.80
2023-02-27T05:40:46.659Z,2.70
2023-02-27T05:43:29.561Z,3.10
2023-02-27T05:46:04.492Z,3.20
2023-02-27T05:48:48.789Z,3.00
2023-02-27T05:54:00.099Z,3.30
2023-02-27T05:56:30.049Z,2.80
2023-02-27T05:59:05.033Z,2.50
2023-02-27T06:01:36.425Z,2.80
2023-02-27T06:04:05.262Z,2.70
2023-02-27T06:06:35.829Z,3.20
2023-02-27T06:09:04.020Z,2.90
2023-02-27T06:11:31.866Z,3.00
2023-02-27T06:13:59.800Z,5.70
2023-02-27T06:16:27.996Z,3.10
2023-02-27T06:18:56.077Z,2.70
2023-02-27T06:21:23.999Z,2.80
2023-02-27T06:23:51.946Z,3.00
2023-02-27T06:26:20.030Z,3.10
2023-02-27T06:28:47.969Z,2.90
2023-02-27T06:31:16.222Z,2.40
2023-02-27T06:33:44.112Z,2.50
2023-02-27T06:36:12.003Z,2.80
2023-02-27T06:38:40.411Z,2.80
2023-02-27T06:41:08.312Z,2.50
2023-02-27T06:43:37.215Z,3.10
2023-02-27T06:46:05.489Z,2.60
2023-02-27T06:48:33.501Z,2.70
2023-02-27T06:51:01.336Z,2.90
2023-02-27T06:53:29.719Z,3.20
2023-02-27T06:55:57.638Z,2.70
2023-02-27T06:58:25.565Z,3.00
2023-02-27T07:00:53.600Z,3.30
2023-02-27T07:03:21.586Z,2.90
2023-02-27T07:05:50.440Z,3.60
2023-02-27T07:08:18.650Z,3.70
2023-02-27T07:10:48.981Z,3.90
2023-02-27T07:13:19.506Z,3.90
2023-02-27T07:15:47.833Z,3.90
2023-02-27T07:18:16.074Z,4.30
2023-02-27T07:20:44.113Z,3.80
2023-02-27T07:23:12.288Z,4.00
2023-02-27T07:25:40.194Z,4.10
2023-02-27T07:28:08.670Z,4.70
2023-02-27T07:30:36.586Z,4.40
2023-02-27T07:33:05.139Z,4.40
2023-02-27T07:35:35.117Z,4.10
2023-02-27T07:38:03.039Z,4.80
2023-02-27T07:40:31.008Z,4.80
2023-02-27T07:42:59.350Z,5.00
2023-02-27T07:45:27.382Z,4.50
2023-02-27T07:47:55.386Z,4.90
2023-02-27T07:50:23.399Z,4.70
2023-02-27T07:52:53.145Z,4.20
2023-02-27T07:55:21.090Z,4.60
2023-02-27T07:57:48.885Z,4.90
2023-02-27T08:00:17.402Z,4.60
2023-02-27T08:02:45.500Z,5.40
2023-02-27T08:05:13.494Z,4.50
2023-02-27T08:07:41.339Z,5.60
2023-02-27T08:10:10.323Z,5.10
2023-02-27T08:12:39.347Z,5.20
2023-02-27T08:15:08.200Z,5.00
2023-02-27T08:17:36.149Z,5.10
2023-02-27T08:20:05.414Z,5.20
2023-02-27T08:22:33.490Z,4.50
2023-02-27T08:25:01.472Z,4.60
2023-02-27T08:27:29.401Z,4.90
2023-02-27T08:29:57.216Z,4.80
2023-02-27T08:32:25.579Z,4.80
2023-02-27T08:34:53.548Z,5.20
2023-02-27T08:37:21.423Z,4.70
2023-02-27T08:39:49.335Z,5.60
2023-02-27T08:42:17.223Z,5.10
2023-02-27T08:44:47.621Z,4.10
2023-02-27T08:47:15.550Z,5.20
2023-02-27T08:49:43.579Z,5.70
2023-02-27T08:52:14.352Z,5.70
2023-02-27T08:54:42.303Z,4.50
2023-02-27T08:57:10.770Z,4.70
2023-02-27T08:59:38.730Z,5.10
2023-02-27T09:02:07.054Z,14.40
2023-02-27T09:04:34.965Z,6.20
2023-02-27T09:07:03.469Z,5.60
2023-02-27T09:09:31.851Z,5.40
2023-02-27T09:11:59.886Z,5.90
2023-02-27T09:14:27.889Z,5.30
2023-02-27T09:16:55.872Z,6.20
2023-02-27T09:19:23.963Z,5.50
2023-02-27T09:21:52.126Z,4.70
2023-02-27T09:24:20.986Z,5.10
2023-02-27T09:26:49.595Z,4.90
2023-02-27T09:29:18.530Z,5.00
2023-02-27T09:31:46.470Z,6.40
2023-02-27T09:34:14.497Z,5.10
2023-02-27T09:36:42.356Z,4.40
2023-02-27T09:39:10.200Z,4.60
2023-02-27T09:41:41.340Z,5.50
2023-02-27T09:44:30.674Z,4.80
2023-02-27T09:47:06.732Z,5.60
2023-02-27T09:49:49.813Z,5.40
2023-02-27T09:52:17.863Z,4.60
2023-02-27T09:54:45.877Z,5.70
2023-02-27T09:57:20.344Z,5.10
2023-02-27T09:59:56.734Z,5.30
2023-02-27T10:02:42.749Z,6.00
2023-02-27T10:05:28.226Z,6.80
2023-02-27T10:08:01.485Z,5.10
2023-02-27T10:10:39.370Z,6.10
2023-02-27T10:13:29.055Z,6.60
2023-02-27T10:15:59.855Z,5.40
2023-02-27T10:18:35.432Z,5.20
2023-02-27T10:21:07.532Z,4.90
2023-02-27T10:23:49.837Z,5.10
2023-02-27T10:26:22.205Z,5.60
2023-02-27T10:28:50.132Z,5.10
2023-02-27T10:31:23.863Z,5.20
2023-02-27T10:33:52.340Z,5.70
2023-02-27T10:36:33.008Z,6.00
2023-02-27T10:39:16.126Z,6.70
2023-02-27T10:41:46.811Z,6.50
2023-02-27T10:44:17.955Z,5.70
2023-02-27T10:46:46.440Z,7.00
2023-02-27T10:49:19.957Z,7.10
2023-02-27T10:52:05.184Z,6.60
2023-02-27T10:54:33.170Z,6.70
2023-02-27T10:57:02.641Z,7.10
2023-02-27T10:59:36.813Z,7.00
2023-02-27T11:02:20.802Z,6.90
2023-02-27T11:04:58.940Z,7.40
2023-02-27T11:07:53.204Z,7.40
2023-02-27T11:10:26.687Z,7.90
2023-02-27T11:13:01.552Z,7.50
2023-02-27T11:15:34.746Z,7.60
2023-02-27T11:18:26.821Z,6.60
2023-02-27T11:21:08.682Z,6.60
2023-02-27T11:23:36.996Z,5.70
2023-02-27T11:26:17.621Z,7.30
2023-02-27T11:28:45.516Z,5.80
2023-02-27T11:31:22.345Z,5.90
2023-02-27T11:33:58.868Z,6.40
2023-02-27T11:36:48.634Z,6.60
2023-02-27T11:39:22.468Z,6.10
2023-02-27T11:44:34.115Z,7.40
2023-02-27T11:47:17.149Z,6.70
2023-02-27T11:50:10.120Z,6.50
2023-02-27T11:52:52.979Z,7.80
2023-02-27T11:55:24.859Z,7.70
2023-02-27T11:57:58.767Z,6.40
2023-02-27T12:04:00.485Z,5.80
2023-02-27T12:06:54.178Z,7.10
2023-02-27T12:09:34.222Z,6.70
2023-02-27T12:12:06.272Z,6.20
2023-02-27T12:14:44.644Z,7.10
2023-02-27T12:17:23.131Z,6.60
2023-02-27T12:20:22.367Z,7.10
2023-02-27T12:22:54.196Z,6.40
2023-02-27T12:26:01.723Z,6.90
2023-02-27T12:28:33.361Z,7.00
2023-02-27T12:31:07.864Z,6.30
2023-02-27T12:33:42.023Z,6.00
2023-02-27T12:36:12.706Z,7.30
2023-02-27T12:38:41.382Z,7.50
2023-02-27T12:41:27.811Z,7.50
2023-02-27T12:44:08.010Z,6.30
2023-02-27T12:46:48.384Z,7.80
2023-02-27T12:49:46.927Z,7.50
2023-02-27T12:52:30.171Z,7.20
2023-02-27T12:55:15.339Z,8.70
2023-02-27T12:58:07.848Z,7.80
2023-02-27T13:00:46.641Z,7.70
2023-02-27T13:03:22.310Z,8.00
2023-02-27T13:06:03.149Z,8.10
2023-02-27T13:08:49.693Z,8.30
2023-02-27T13:11:35.684Z,9.50
2023-02-27T13:14:26.012Z,8.40
2023-02-27T13:17:26.961Z,8.70
2023-02-27T13:20:04.989Z,8.30
2023-02-27T13:22:57.824Z,8.20
2023-02-27T13:25:26.485Z,7.80
2023-02-27T13:28:03.429Z,8.00
2023-02-27T13:30:51.595Z,8.00
2023-02-27T13:33:34.037Z,7.40
2023-02-27T13:36:14.107Z,7.60
2023-02-27T13:38:47.970Z,7.00
2023-02-27T13:41:21.759Z,8.00
2023-02-27T13:43:54.489Z,8.10
2023-02-27T13:46:28.414Z,9.60
2023-02-27T13:49:05.377Z,7.50
2023-02-27T13:51:36.436Z,7.60
2023-02-27T13:54:13.640Z,7.70
2023-02-27T13:56:51.266Z,10.30
2023-02-27T13:59:30.275Z,9.20
2023-02-27T14:02:11.430Z,10.40
2023-02-27T14:05:03.213Z,8.00
2023-02-27T14:07:52.929Z,8.60
2023-02-27T14:10:24.751Z,8.70
2023-02-27T14:12:53.161Z,7.90
2023-02-27T14:15:26.969Z,7.70
2023-02-27T14:20:51.770Z,7.80
2023-02-27T14:23:26.928Z,7.60
2023-02-27T14:26:20.587Z,9.10
2023-02-27T14:29:01.597Z,8.20
2023-02-27T14:31:39.130Z,7.40
2023-02-27T14:34:11.372Z,8.80
2023-02-27T14:36:51.607Z,8.40
2023-02-27T14:39:23.691Z,7.60
2023-02-27T14:42:17.802Z,7.30
2023-02-27T14:44:48.286Z,7.40
2023-02-27T14:47:25.708Z,7.60
2023-02-27T14:49:56.223Z,7.40
2023-02-27T14:52:27.032Z,7.10
2023-02-27T14:55:29.915Z,8.20
2023-02-27T14:58:18.816Z,7.20
2023-02-27T15:01:02.560Z,6.30
2023-02-27T15:03:50.208Z,6.90
2023-02-27T15:06:21.763Z,7.00
2023-02-27T15:08:53.085Z,6.50
2023-02-27T15:11:23.450Z,7.00
2023-02-27T15:13:59.199Z,7.20
2023-02-27T15:16:34.478Z,8.40
2023-02-27T15:19:24.088Z,9.00
2023-02-27T15:21:54.724Z,9.80
2023-02-27T15:24:48.887Z,8.50
2023-02-27T15:27:23.859Z,9.50
2023-02-27T15:29:57.059Z,8.50
2023-02-27T15:32:38.287Z,8.50
2023-02-27T15:35:19.637Z,8.70
2023-02-27T15:37:56.432Z,8.70
2023-02-27T15:40:27.773Z,8.50
2023-02-27T15:42:57.088Z,8.20
2023-02-27T15:45:33.056Z,7.00
2023-02-27T15:48:01.624Z,6.60
2023-02-27T15:50:41.316Z,7.70
2023-02-27T15:53:24.146Z,7.10
2023-02-27T15:56:06.199Z,8.20
2023-02-27T15:58:37.383Z,7.80
2023-02-27T16:01:09.490Z,7.70
2023-02-27T16:03:43.064Z,7.30
2023-02-27T16:06:34.122Z,7.00
2023-02-27T16:09:19.158Z,7.90
2023-02-27T16:11:47.195Z,7.20
2023-02-27T16:14:44.164Z,6.90
2023-02-27T16:17:33.041Z,6.80
2023-02-27T16:20:22.748Z,6.80
2023-02-27T16:23:20.031Z,6.80
2023-02-27T16:26:03.316Z,6.90
2023-02-27T16:28:45.275Z,7.50
2023-02-27T16:31:29.543Z,7.30
2023-02-27T16:34:13.260Z,8.40
2023-02-27T16:36:43.149Z,8.10
2023-02-27T16:39:14.189Z,8.80
2023-02-27T16:41:42.154Z,8.90
2023-02-27T16:44:10.310Z,8.30
2023-02-27T16:46:38.302Z,7.50
2023-02-27T16:49:19.233Z,7.50
2023-02-27T16:51:47.957Z,7.90
2023-02-27T16:54:16.701Z,8.90
2023-02-27T16:56:46.588Z,9.00
2023-02-27T16:59:29.803Z,8.80
2023-02-27T17:01:59.126Z,7.90
2023-02-27T17:04:28.649Z,7.30
2023-02-27T17:06:59.151Z,7.80
2023-02-27T17:09:28.305Z,8.40
2023-02-27T17:11:57.521Z,8.70
2023-02-27T17:14:25.500Z,8.50
2023-02-27T17:16:53.576Z,8.60
2023-02-27T17:19:22.275Z,7.40
2023-02-27T17:21:50.934Z,8.10
2023-02-27T17:24:18.865Z,8.10
2023-02-27T17:26:46.821Z,7.20
2023-02-27T17:29:15.183Z,7.80
2023-02-27T17:31:44.758Z,7.90
2023-02-27T17:34:12.856Z,8.00
2023-02-27T17:36:41.034Z,8.60
2023-02-27T17:39:11.725Z,8.30
2023-02-27T17:41:41.607Z,7.80
2023-02-27T17:44:13.532Z,7.90
2023-02-27T17:46:41.684Z,7.60
2023-02-27T17:49:10.021Z,8.40
2023-02-27T17:51:38.190Z,8.60
2023-02-27T17:54:06.973Z,8.50
2023-02-27T17:56:36.796Z,7.70
2023-02-27T17:59:06.114Z,8.10
2023-02-27T18:01:35.737Z,8.80
2023-02-27T18:04:03.882Z,7.90
2023-02-27T18:06:32.068Z,7.20
2023-02-27T18:09:00.009Z,8.30
2023-02-27T18:11:27.876Z,8.90
2023-02-27T18:13:56.524Z,7.60
2023-02-27T18:16:25.483Z,7.50
2023-02-27T18:18:53.563Z,7.90
2023-02-27T18:21:24.239Z,8.40
2023-02-27T18:23:52.577Z,7.50
2023-02-27T18:26:31.840Z,8.60
2023-02-27T18:29:03.311Z,8.20
2023-02-27T18:31:35.425Z,8.20
2023-02-27T18:34:03.872Z,8.90
2023-02-27T18:36:33.013Z,7.90
2023-02-27T18:39:01.021Z,8.00
2023-02-27T18:41:29.417Z,8.30
2023-02-27T18:43:58.700Z,8.10
2023-02-27T18:46:28.084Z,8.10
2023-02-27T18:48:56.775Z,8.90
2023-02-27T18:51:25.517Z,8.80
2023-02-27T18:53:53.948Z,9.00
2023-02-27T18:56:25.191Z,8.20
2023-02-27T18:58:53.927Z,9.00
2023-02-27T19:01:26.300Z,8.10
2023-02-27T19:04:00.471Z,8.50
2023-02-27T19:08:57.961Z,9.70
2023-02-27T19:11:35.363Z,10.50
2023-02-27T19:14:07.335Z,10.10
2023-02-27T19:16:35.742Z,9.60
2023-02-27T19:19:05.079Z,8.70
2023-02-27T19:21:33.883Z,9.60
2023-02-27T19:24:02.310Z,9.80
2023-02-27T19:26:32.674Z,9.50
2023-02-27T19:29:01.061Z,9.30
2023-02-27T19:31:29.137Z,8.90
2023-02-27T19:33:57.958Z,9.70
2023-02-27T19:36:28.074Z,10.30
2023-02-27T19:38:56.839Z,10.00
2023-02-27T19:41:25.200Z,9.70
2023-02-27T19:43:53.905Z,8.90
2023-02-27T19:46:24.891Z,9.00
2023-02-27T19:48:59.795Z,9.60
2023-02-27T19:51:28.331Z,10.00
2023-02-27T19:53:56.551Z,10.20
2023-02-27T19:56:27.685Z,10.40
2023-02-27T19:58:56.207Z,9.90
2023-02-27T20:01:31.055Z,9.10
2023-02-27T20:04:00.589Z,8.70
2023-02-27T20:06:31.435Z,9.30
2023-02-27T20:09:00.132Z,9.50
2023-02-27T20:11:32.604Z,9.70
2023-02-27T20:14:00.799Z,8.30
2023-02-27T20:16:30.774Z,8.40
2023-02-27T20:18:59.077Z,8.60
2023-02-27T20:21:28.780Z,9.10
2023-02-27T20:23:58.222Z,9.00
2023-02-27T20:26:32.528Z,8.50
2023-02-27T20:29:03.416Z,8.60
2023-02-27T20:31:32.875Z,7.20
2023-02-27T20:34:01.709Z,8.60
2023-02-27T20:36:29.765Z,8.20
2023-02-27T20:38:58.034Z,8.70
2023-02-27T20:41:29.298Z,7.80
2023-02-27T20:43:57.558Z,7.80
2023-02-27T20:46:28.878Z,8.00
2023-02-27T20:49:00.236Z,8.30
2023-02-27T20:51:31.342Z,8.80
2023-02-27T20:54:00.229Z,8.30
2023-02-27T20:56:32.094Z,8.10
2023-02-27T20:59:02.592Z,8.40
2023-02-27T21:01:30.924Z,9.50
2023-02-27T21:03:59.363Z,8.60
2023-02-27T21:06:28.177Z,9.10
2023-02-27T21:08:57.260Z,9.00
2023-02-27T21:11:27.925Z,8.50
2023-02-27T21:13:57.518Z,7.90
2023-02-27T21:16:25.907Z,8.00
2023-02-27T21:18:56.568Z,8.60
2023-02-27T21:21:30.978Z,8.60
2023-02-27T21:24:00.234Z,7.90
2023-02-27T21:26:40.075Z,8.20
2023-02-27T21:29:13.985Z,8.40
2023-02-27T21:34:18.591Z,8.70
2023-02-27T21:36:47.931Z,8.50
2023-02-27T21:39:21.846Z,8.30
2023-02-27T21:41:50.010Z,8.20
2023-02-27T21:44:19.952Z,8.30
2023-02-27T21:46:48.269Z,7.90
2023-02-27T21:49:22.641Z,7.80
2023-02-27T21:51:51.196Z,8.90
2023-02-27T21:54:20.293Z,8.80
2023-02-27T21:56:49.532Z,8.80
2023-02-27T21:59:21.715Z,8.10
2023-02-27T22:01:49.794Z,8.20
2023-02-27T22:04:19.868Z,8.10
2023-02-27T22:06:49.433Z,8.30
2023-02-27T22:09:20.585Z,8.40
2023-02-27T22:11:49.432Z,9.40
2023-02-27T22:14:17.717Z,8.90
2023-02-27T22:16:45.698Z,9.20
2023-02-27T22:19:21.985Z,8.50
2023-02-27T22:21:50.031Z,8.20
2023-02-27T22:24:18.411Z,9.10
2023-02-27T22:26:47.795Z,9.40
2023-02-27T22:29:17.099Z,8.50
2023-02-27T22:31:45.535Z,9.10
2023-02-27T22:34:18.482Z,9.10
2023-02-27T22:36:48.792Z,9.70
2023-02-27T22:39:16.755Z,9.10
2023-02-27T22:41:46.099Z,9.70
2023-02-27T22:44:15.516Z,9.00
2023-02-27T22:46:47.096Z,10.00
2023-02-27T22:49:21.534Z,10.00
2023-02-27T22:51:52.041Z,10.00
2023-02-27T22:54:22.061Z,9.70
2023-02-27T22:56:52.034Z,9.80
2023-02-27T22:59:20.977Z,10.50
2023-02-27T23:01:50.461Z,9.60
2023-02-27T23:04:18.787Z,9.30
2023-02-27T23:06:46.818Z,9.40
2023-02-27T23:09:20.466Z,9.70
2023-02-27T23:11:48.352Z,9.10
2023-02-27T23:14:17.259Z,11.50
2023-02-27T23:16:45.947Z,11.10
2023-02-27T23:19:15.744Z,10.30
2023-02-27T23:21:43.840Z,10.50
2023-02-27T23:24:14.739Z,10.70
2023-02-27T23:26:45.379Z,11.90
2023-02-27T23:29:13.704Z,10.30
2023-02-27T23:31:42.471Z,9.90
2023-02-27T23:34:10.484Z,10.00
2023-02-27T23:36:39.313Z,10.10
2023-02-27T23:39:07.945Z,10.50
2023-02-27T23:41:35.885Z,10.60
2023-02-27T23:44:22.647Z,10.10
2023-02-27T23:46:50.625Z,10.80
2023-02-27T23:49:18.599Z,10.20
2023-02-27T23:51:46.433Z,10.60
2023-02-27T23:54:14.297Z,11.00
2023-02-27T23:56:42.193Z,10.90
2023-02-27T23:59:10.013Z,11.60
